This is the latest recevied weather packets stored in our database for station/object K7MT-WX. If no packets are shown the sender has not sent any weather packets the latest 1 day(s).
| Time | Temp. | Humidity | Pressure | Rain* | Wind** | Luminosity | Snow |
|---|---|---|---|---|---|---|---|
| 1778039441 | 2.78° C | 64% | 1019.5 hPa | 0 mm | 0 m/s | - | - |
| 1778038511 | 3.33° C | 63% | 1019.5 hPa | 0 mm | 0 m/s | - | - |
| 1778037611 | 3.33° C | 61% | 1019.5 hPa | 0 mm | 0.45 m/s, 114° | - | - |
| 1778036711 | 3.89° C | 60% | 1019.3 hPa | 0 mm | 0.89 m/s, 126° | - | - |
| 1778035811 | 5° C | 55% | 1018.9 hPa | 0 mm | 0.89 m/s, 134° | - | - |
| 1778034911 | 6.11° C | 50% | 1018.8 hPa | 0 mm | 1.34 m/s, 155° | - | - |
| 1778034011 | 7.22° C | 46% | 1018.6 hPa | 0 mm | 2.24 m/s, 155° | - | - |
| 1778033111 | 7.78° C | 43% | 1018.5 hPa | 0 mm | 3.13 m/s, 153° | - | - |
| 1778032211 | 8.33° C | 42% | 1018.4 hPa | 0 mm | 3.58 m/s, 160° | - | - |
| 1778031311 | 7.78° C | 44% | 1018.3 hPa | 0 mm | 2.68 m/s, 160° | - | - |
| 1778030411 | 8.33° C | 42% | 1018.4 hPa | 0 mm | 3.58 m/s, 154° | - | - |
| 1778029511 | 8.33° C | 44% | 1018.2 hPa | 0 mm | 4.02 m/s, 161° | - | - |
| 1778028611 | 8.89° C | 45% | 1018 hPa | 0 mm | 3.13 m/s, 163° | - | - |
| 1778027711 | 8.89° C | 44% | 1018 hPa | 0 mm | 3.58 m/s, 171° | - | - |
| 1778026811 | 8.89° C | 45% | 1017.9 hPa | 0 mm | 5.36 m/s, 158° | - | - |
| 1778025911 | 8.89° C | 43% | 1017.8 hPa | 0 mm | 2.68 m/s, 198° | - | - |
| 1778025011 | 8.33° C | 42% | 1017.7 hPa | 0 mm | 3.13 m/s, 177° | - | - |
| 1778024111 | 8.89° C | 43% | 1017.8 hPa | 0 mm | 2.68 m/s, 177° | - | - |
| 1778023181 | 8.89° C | 45% | 1017.8 hPa | 0 mm | 3.13 m/s, 198° | - | - |
| 1778022281 | 8.89° C | 44% | 1017.7 hPa | 0 mm | 2.68 m/s, 201° | - | - |
| 1778021351 | 8.89° C | 43% | 1017.6 hPa | 0 mm | 2.24 m/s, 193° | - | - |
| 1778020451 | 8.89° C | 48% | 1017.6 hPa | 0 mm | 1.34 m/s, 175° | - | - |
| 1778019551 | 8.89° C | 43% | 1017.7 hPa | 0 mm | 2.24 m/s, 175° | - | - |
| 1778018651 | 8.89° C | 48% | 1017.6 hPa | 0 mm | 3.58 m/s, 175° | - | - |
| 1778017751 | 8.89° C | 46% | 1017.5 hPa | 0 mm | 2.68 m/s, 187° | - | - |
* Rain latest hour (hover to see other rain measurements)
** Current wind speed in m/s (hover to see current wind gust speed)